Time;durP1;ratioP1;P1;durP2;ratioP2;P2;SDS_P1;SDS_P2;PMS_P1;PMS_P2;Temp;Humidity;BMP_temperature;BMP_pressure;BME280_temperature;BME280_humidity;BME280_pressure;Samples;Min_cycle;Max_cycle;Signal;HPM_P1;HPM_P2
2021/09/12 00:02:15;;;;;;;4.65;1.10;;;22.60;88.90;;;;;;5073028;28;20021;-88
2021/09/12 00:04:41;;;;;;;4.35;1.33;;;22.60;88.90;;;;;;5072764;28;20108;-86
2021/09/12 00:07:07;;;;;;;3.78;1.42;;;22.60;88.80;;;;;;5073249;28;20428;-87
2021/09/12 00:09:33;;;;;;;6.75;1.77;;;22.60;88.80;;;;;;5072695;28;20033;-87
2021/09/12 00:11:59;;;;;;;3.20;1.52;;;22.60;88.80;;;;;;5072666;28;20029;-79
2021/09/12 00:14:25;;;;;;;3.45;1.27;;;22.60;88.70;;;;;;5072506;28;20032;-88
2021/09/12 00:16:51;;;;;;;4.57;1.45;;;22.50;88.60;;;;;;5071503;28;20507;-87
2021/09/12 00:19:17;;;;;;;2.35;1.20;;;22.60;88.60;;;;;;5072981;28;20063;-85
2021/09/12 00:21:43;;;;;;;2.80;1.25;;;22.50;88.60;;;;;;5071192;28;20029;-87
2021/09/12 00:24:09;;;;;;;3.05;1.10;;;22.60;88.50;;;;;;5072522;28;20039;-82
2021/09/12 00:26:35;;;;;;;2.83;1.33;;;22.50;88.40;;;;;;5072241;28;20020;-86
2021/09/12 00:29:01;;;;;;;3.55;1.70;;;22.50;89.10;;;;;;5072593;28;20032;-84
2021/09/12 00:31:26;;;;;;;2.13;1.33;;;22.50;88.30;;;;;;5072342;28;20472;-84
2021/09/12 00:33:52;;;;;;;2.13;1.20;;;22.50;88.20;;;;;;5072576;28;20039;-85
2021/09/12 00:36:18;;;;;;;2.30;1.30;;;22.50;88.20;;;;;;5072797;28;20477;-86
2021/09/12 00:38:43;;;;;;;3.83;1.20;;;22.50;88.20;;;;;;5072145;28;20024;-87
2021/09/12 00:41:09;;;;;;;4.18;1.77;;;22.50;88.20;;;;;;5072003;28;20471;-86
2021/09/12 00:43:35;;;;;;;2.63;1.40;;;22.40;88.90;;;;;;5072038;28;20066;-88
2021/09/12 00:46:06;;;;;;;3.08;0.95;;;22.50;88.20;;;;;;5072081;28;20029;-87
2021/09/12 00:48:32;;;;;;;2.60;1.42;;;22.40;88.10;;;;;;5071888;28;20021;-77
2021/09/12 00:50:58;;;;;;;2.47;1.33;;;22.40;88.00;;;;;;5072056;28;20020;-86
2021/09/12 00:53:24;;;;;;;2.92;1.50;;;22.40;88.00;;;;;;5071860;28;20115;-88
2021/09/12 00:55:52;;;;;;;2.28;0.98;;;22.40;87.90;;;;;;5071860;28;20416;-85
2021/09/12 00:58:19;;;;;;;2.45;1.33;;;22.40;87.80;;;;;;5072042;28;20499;-88
2021/09/12 01:00:45;;;;;;;2.97;1.30;;;22.40;87.60;;;;;;5072161;28;20020;-87
2021/09/12 01:03:11;;;;;;;2.97;1.67;;;22.40;87.70;;;;;;5071761;28;20488;-87
2021/09/12 01:05:37;;;;;;;2.47;1.20;;;22.40;87.60;;;;;;5071300;28;20028;-86
2021/09/12 01:08:05;;;;;;;2.65;1.23;;;22.40;88.20;;;;;;5071840;28;20024;-85
2021/09/12 01:10:31;;;;;;;2.30;1.13;;;22.40;87.40;;;;;;5071257;28;20040;-88
2021/09/12 01:12:56;;;;;;;3.47;1.70;;;22.40;87.40;;;;;;5071716;28;20024;-79
2021/09/12 01:15:22;;;;;;;3.25;1.60;;;22.40;87.40;;;;;;5069894;28;20071;-87
2021/09/12 01:17:48;;;;;;;2.78;1.27;;;22.40;87.40;;;;;;5071924;28;20029;-88
2021/09/12 01:20:13;;;;;;;3.20;1.50;;;22.40;87.20;;;;;;5070377;28;20020;-85
2021/09/12 01:22:39;;;;;;;3.67;1.38;;;22.30;87.10;;;;;;5071266;28;20413;-84
2021/09/12 01:25:06;;;;;;;3.65;1.60;;;22.40;87.20;;;;;;5071335;28;20085;-84
2021/09/12 01:27:31;;;;;;;3.47;1.40;;;22.30;87.10;;;;;;5071275;28;20028;-87
2021/09/12 01:30:00;;;;;;;2.50;1.25;;;22.40;87.10;;;;;;5071099;28;20020;-83
2021/09/12 01:32:25;;;;;;;2.38;1.30;;;22.30;87.00;;;;;;5071253;28;20040;-77
2021/09/12 01:34:51;;;;;;;2.17;0.98;;;22.30;86.90;;;;;;5071413;28;20032;-80
2021/09/12 01:37:17;;;;;;;4.80;1.48;;;22.30;86.90;;;;;;5071545;28;20100;-76
2021/09/12 01:39:43;;;;;;;1.67;1.10;;;22.30;86.90;;;;;;5071112;28;20483;-87
2021/09/12 01:42:09;;;;;;;2.92;1.00;;;22.30;86.90;;;;;;5071316;28;20021;-84
2021/09/12 01:44:34;;;;;;;3.15;1.30;;;22.30;86.80;;;;;;5071136;28;20051;-88
2021/09/12 01:47:00;;;;;;;3.58;1.30;;;22.30;86.80;;;;;;5071382;28;20033;-84
2021/09/12 01:49:26;;;;;;;2.88;1.42;;;22.30;86.80;;;;;;5070933;28;20472;-88
2021/09/12 01:51:52;;;;;;;3.17;1.20;;;22.30;86.70;;;;;;5069997;28;20028;-82
2021/09/12 01:54:19;;;;;;;3.08;1.48;;;22.30;86.60;;;;;;5069844;28;20107;-83
2021/09/12 01:56:45;;;;;;;2.20;1.15;;;22.30;86.60;;;;;;5071131;28;20064;-85
2021/09/12 01:59:10;;;;;;;3.35;1.48;;;22.30;86.50;;;;;;5071231;28;20446;-83
2021/09/12 02:01:36;;;;;;;2.75;1.88;;;22.30;86.40;;;;;;5070968;28;20110;-82
2021/09/12 02:04:02;;;;;;;4.18;1.67;;;22.20;86.40;;;;;;5071202;28;20024;-87
2021/09/12 02:06:28;;;;;;;2.28;1.30;;;22.20;86.30;;;;;;5070886;28;20498;-84
2021/09/12 02:08:54;;;;;;;2.53;1.10;;;22.20;86.30;;;;;;5071157;28;20086;-84
2021/09/12 02:11:20;;;;;;;2.22;1.20;;;22.20;86.30;;;;;;5074001;28;20552;-75
2021/09/12 02:13:46;;;;;;;1.67;1.20;;;22.20;86.30;;;;;;5075552;28;20021;-87
2021/09/12 02:16:12;;;;;;;2.80;1.15;;;22.20;86.30;;;;;;5075329;28;20051;-87
2021/09/12 02:18:38;;;;;;;2.83;1.33;;;22.20;86.30;;;;;;5074743;28;20025;-87
2021/09/12 02:21:03;;;;;;;2.35;0.82;;;22.20;86.30;;;;;;5075003;28;20507;-83
2021/09/12 02:23:29;;;;;;;3.15;1.20;;;22.20;86.20;;;;;;5074762;28;20028;-82
2021/09/12 02:25:55;;;;;;;2.03;1.10;;;22.20;86.20;;;;;;5074988;28;20108;-85
2021/09/12 02:28:21;;;;;;;3.28;1.30;;;22.20;86.10;;;;;;5074690;28;20064;-80
2021/09/12 02:30:46;;;;;;;3.28;1.30;;;22.20;86.20;;;;;;5075012;28;20459;-85
2021/09/12 02:33:12;;;;;;;3.47;1.25;;;22.20;86.10;;;;;;5074748;28;20103;-81
2021/09/12 02:35:38;;;;;;;3.35;1.30;;;22.20;86.00;;;;;;5074399;28;20504;-77
2021/09/12 02:38:04;;;;;;;3.67;1.15;;;22.20;86.00;;;;;;5074583;28;20427;-82
2021/09/12 02:40:29;;;;;;;3.08;1.58;;;22.20;86.00;;;;;;5074332;28;20035;-85
2021/09/12 02:42:55;;;;;;;3.25;1.30;;;22.20;85.90;;;;;;5074451;28;20033;-88
2021/09/12 02:45:21;;;;;;;2.17;1.00;;;22.20;85.90;;;;;;5074292;28;20040;-81
2021/09/12 02:47:46;;;;;;;3.00;1.25;;;22.10;85.80;;;;;;5073603;28;20024;-86
2021/09/12 02:50:12;;;;;;;3.38;1.33;;;22.20;85.90;;;;;;5074307;28;20027;-89
2021/09/12 02:52:38;;;;;;;2.42;1.35;;;22.20;85.80;;;;;;5072666;28;20123;-81
2021/09/12 02:55:07;;;;;;;2.72;1.40;;;22.10;85.80;;;;;;5074284;28;20036;-80
2021/09/12 02:57:33;;;;;;;2.53;1.23;;;22.10;85.70;;;;;;5074166;28;20439;-88
2021/09/12 02:59:59;;;;;;;2.55;1.10;;;22.10;85.70;;;;;;5074156;28;20055;-88
2021/09/12 03:02:26;;;;;;;2.97;1.10;;;22.10;85.80;;;;;;5072264;28;20046;-84
2021/09/12 03:04:52;;;;;;;2.78;1.27;;;22.10;85.60;;;;;;5073907;28;20020;-88
2021/09/12 03:07:17;;;;;;;3.25;1.75;;;22.10;85.50;;;;;;5074187;28;20094;-85
2021/09/12 03:09:43;;;;;;;3.40;1.52;;;22.10;85.50;;;;;;5073447;28;20020;-84
2021/09/12 03:12:08;;;;;;;2.08;1.00;;;22.10;85.40;;;;;;5074011;28;20037;-85
2021/09/12 03:14:34;;;;;;;2.20;1.20;;;22.10;85.40;;;;;;5073710;28;20032;-86
2021/09/12 03:17:00;;;;;;;2.08;0.85;;;22.10;85.20;;;;;;5073843;28;20485;-85
2021/09/12 03:19:26;;;;;;;1.90;1.00;;;22.10;85.40;;;;;;5073464;28;20024;-81
2021/09/12 03:21:51;;;;;;;2.05;1.23;;;22.10;85.30;;;;;;5073782;28;20020;-87
2021/09/12 03:24:17;;;;;;;1.40;0.90;;;22.10;85.30;;;;;;5072569;28;20025;-84
2021/09/12 03:26:43;;;;;;;2.30;1.30;;;22.10;85.20;;;;;;5073549;28;20032;-84
2021/09/12 03:29:08;;;;;;;3.58;1.40;;;22.10;85.40;;;;;;5073774;28;20016;-88
2021/09/12 03:31:34;;;;;;;2.55;1.30;;;22.00;85.20;;;;;;5073339;28;20421;-84
2021/09/12 03:34:00;;;;;;;2.78;1.35;;;22.10;85.40;;;;;;5073629;28;20017;-89
2021/09/12 03:36:26;;;;;;;1.98;1.05;;;22.10;85.10;;;;;;5073386;28;20037;-82
2021/09/12 03:38:51;;;;;;;2.33;1.00;;;22.00;85.00;;;;;;5073065;28;20044;-88
2021/09/12 03:41:17;;;;;;;2.70;1.30;;;22.00;85.10;;;;;;5073758;28;20035;-84
2021/09/12 03:43:42;;;;;;;3.20;1.40;;;22.00;85.10;;;;;;5073151;28;20440;-83
2021/09/12 03:46:08;;;;;;;1.88;1.00;;;22.00;85.00;;;;;;5073343;28;20378;-87
2021/09/12 03:48:34;;;;;;;3.20;1.63;;;22.00;84.80;;;;;;5073138;28;20032;-84
2021/09/12 03:50:59;;;;;;;2.88;1.30;;;22.00;84.80;;;;;;5073204;28;20487;-86
2021/09/12 03:53:25;;;;;;;2.63;0.95;;;22.00;84.90;;;;;;5073034;28;20108;-86
2021/09/12 03:55:51;;;;;;;2.40;1.10;;;22.00;84.90;;;;;;5073132;28;20071;-88
2021/09/12 03:58:16;;;;;;;3.25;1.10;;;22.00;84.90;;;;;;5073381;28;20078;-78
2021/09/12 04:00:42;;;;;;;2.53;0.93;;;22.00;84.80;;;;;;5073044;28;20103;-84
2021/09/12 04:03:08;;;;;;;2.42;1.13;;;22.00;84.70;;;;;;5073185;28;20103;-85
2021/09/12 04:05:33;;;;;;;3.05;1.00;;;22.00;84.70;;;;;;5072559;28;20064;-80
2021/09/12 04:07:59;;;;;;;2.60;1.10;;;21.90;84.80;;;;;;5073059;28;20361;-83
2021/09/12 04:10:25;;;;;;;2.42;1.08;;;22.00;84.60;;;;;;5072629;28;20036;-79
2021/09/12 04:12:50;;;;;;;2.17;1.00;;;21.90;84.60;;;;;;5071420;28;20026;-79
2021/09/12 04:15:16;;;;;;;2.17;1.10;;;21.90;84.40;;;;;;5071604;28;20032;-82
2021/09/12 04:17:42;;;;;;;2.85;1.20;;;21.90;84.70;;;;;;5072495;28;20028;-85
2021/09/12 04:20:08;;;;;;;2.40;1.05;;;21.90;84.70;;;;;;5072524;28;20060;-82
2021/09/12 04:22:34;;;;;;;2.78;1.00;;;21.90;84.70;;;;;;5072321;28;20016;-88
2021/09/12 04:25:00;;;;;;;2.92;1.10;;;21.90;84.50;;;;;;5071331;28;20496;-86
2021/09/12 04:27:26;;;;;;;2.63;1.27;;;21.90;84.40;;;;;;5072290;28;20024;-87
2021/09/12 04:29:51;;;;;;;3.03;1.13;;;21.90;84.80;;;;;;5072467;28;20029;-86
2021/09/12 04:32:17;;;;;;;2.33;0.93;;;21.90;84.50;;;;;;5072634;28;20023;-84
2021/09/12 04:34:46;;;;;;;2.35;1.13;;;21.90;84.40;;;;;;5071591;28;20037;-80
2021/09/12 04:37:11;;;;;;;3.40;1.10;;;21.90;84.40;;;;;;5072396;28;20039;-81
2021/09/12 04:39:37;;;;;;;3.92;1.52;;;21.90;84.30;;;;;;5072190;28;20100;-85
2021/09/12 04:42:03;;;;;;;2.15;1.00;;;21.90;84.20;;;;;;5072232;28;20024;-87
2021/09/12 04:44:29;;;;;;;1.80;0.90;;;;;;;;;;5072189;28;20032;-88
2021/09/12 04:46:55;;;;;;;2.20;1.08;;;21.90;85.20;;;;;;5072237;28;20016;-87
2021/09/12 04:49:21;;;;;;;2.65;1.10;;;21.90;84.30;;;;;;5070369;28;20161;-87
2021/09/12 04:51:47;;;;;;;2.78;1.52;;;21.90;84.20;;;;;;5072396;28;20103;-89
2021/09/12 04:54:12;;;;;;;1.90;1.00;;;21.80;84.10;;;;;;5071812;28;20032;-88
2021/09/12 04:56:38;;;;;;;1.83;1.00;;;21.80;84.20;;;;;;5071564;28;20085;-85
2021/09/12 04:59:04;;;;;;;3.47;1.38;;;21.80;84.10;;;;;;5072004;28;20105;-88
2021/09/12 05:01:32;;;;;;;2.10;0.90;;;21.80;84.30;;;;;;5070379;28;20035;-84
2021/09/12 05:03:58;;;;;;;1.60;0.90;;;21.80;84.00;;;;;;5071532;28;20392;-88
2021/09/12 05:06:23;;;;;;;1.88;1.05;;;21.80;84.10;;;;;;5071625;28;20035;-87
2021/09/12 05:08:49;;;;;;;3.38;1.45;;;21.80;84.50;;;;;;5072152;28;20024;-87
2021/09/12 05:11:15;;;;;;;2.22;1.10;;;21.80;83.80;;;;;;5071852;28;20047;-85
2021/09/12 05:13:40;;;;;;;1.77;1.10;;;21.80;84.00;;;;;;5071374;28;20099;-89
2021/09/12 05:16:06;;;;;;;2.05;1.25;;;21.80;84.10;;;;;;5070360;28;20126;-89
2021/09/12 05:18:31;;;;;;;2.40;1.25;;;21.80;83.90;;;;;;5071321;28;20134;-78
2021/09/12 05:20:57;;;;;;;3.38;1.00;;;21.80;83.90;;;;;;5071411;28;20060;-88
2021/09/12 05:23:23;;;;;;;2.38;1.13;;;21.80;84.00;;;;;;5070040;28;20021;-88
2021/09/12 05:25:50;;;;;;;2.30;1.05;;;21.80;83.90;;;;;;5071767;28;20024;-86
2021/09/12 05:28:16;;;;;;;3.30;1.00;;;21.80;83.90;;;;;;5071754;28;20024;-78
2021/09/12 05:30:42;;;;;;;1.80;1.00;;;21.80;83.90;;;;;;5071276;28;20472;-78
2021/09/12 05:33:08;;;;;;;2.10;0.93;;;21.80;83.90;;;;;;5071397;28;20035;-87
2021/09/12 05:35:33;;;;;;;2.15;0.82;;;21.80;83.90;;;;;;5071083;28;20472;-89
2021/09/12 05:37:59;;;;;;;3.47;1.20;;;21.80;83.90;;;;;;5071365;28;20024;-86
2021/09/12 05:40:25;;;;;;;4.68;1.00;;;21.80;83.80;;;;;;5071094;28;20067;-80
2021/09/12 05:42:51;;;;;;;4.07;1.40;;;21.80;83.90;;;;;;5071321;28;20028;-76
2021/09/12 05:45:16;;;;;;;3.60;1.10;;;21.80;83.80;;;;;;5070591;28;20033;-84
2021/09/12 05:47:42;;;;;;;2.22;1.15;;;21.80;83.70;;;;;;5071174;28;20021;-88
2021/09/12 05:50:08;;;;;;;2.42;1.15;;;21.80;83.80;;;;;;5071254;28;20024;-87
2021/09/12 05:52:35;;;;;;;2.25;0.80;;;21.80;83.80;;;;;;5071002;28;20054;-88
2021/09/12 05:55:01;;;;;;;2.20;0.65;;;21.80;84.60;;;;;;5071276;28;20037;-84
2021/09/12 05:57:26;;;;;;;2.70;0.95;;;21.80;83.70;;;;;;5070850;28;20495;-81
2021/09/12 05:59:52;;;;;;;1.98;0.80;;;21.70;83.60;;;;;;5071242;28;20396;-87
2021/09/12 06:02:18;;;;;;;2.40;0.90;;;21.80;83.80;;;;;;5071542;28;20016;-83
2021/09/12 06:04:44;;;;;;;2.10;0.88;;;21.70;83.60;;;;;;5070536;28;20442;-85
2021/09/12 06:07:10;;;;;;;1.80;0.95;;;21.70;83.70;;;;;;5071086;28;20526;-87
2021/09/12 06:09:36;;;;;;;2.83;0.88;;;21.70;83.60;;;;;;5070848;28;20103;-87
2021/09/12 06:12:02;;;;;;;3.38;1.15;;;21.70;83.70;;;;;;5070815;28;20094;-88
2021/09/12 06:14:28;;;;;;;2.78;1.45;;;21.70;83.70;;;;;;5069926;28;20404;-88
2021/09/12 06:16:53;;;;;;;2.50;1.15;;;21.70;83.60;;;;;;5070854;28;20064;-87
2021/09/12 06:19:19;;;;;;;1.95;0.90;;;21.70;83.70;;;;;;5071265;28;20439;-86
2021/09/12 06:21:44;;;;;;;1.20;0.70;;;21.70;83.60;;;;;;5071041;28;20028;-88
2021/09/12 06:24:10;;;;;;;2.40;1.00;;;21.70;83.70;;;;;;5070393;28;20032;-89
2021/09/12 06:26:36;;;;;;;1.65;0.88;;;21.70;83.70;;;;;;5070752;28;20028;-82
2021/09/12 06:29:01;;;;;;;2.40;0.90;;;21.70;83.60;;;;;;5070308;28;20032;-84
2021/09/12 06:31:27;;;;;;;4.10;1.20;;;21.70;83.60;;;;;;5081279;28;20039;-81
2021/09/12 06:33:53;;;;;;;2.25;1.23;;;21.70;83.60;;;;;;5076318;28;20111;-78
2021/09/12 06:36:19;;;;;;;3.72;1.13;;;21.70;83.60;;;;;;5070769;28;20040;-82
2021/09/12 06:38:47;;;;;;;2.35;1.00;;;21.70;83.70;;;;;;5071116;28;20025;-83
2021/09/12 06:41:13;;;;;;;1.35;0.70;;;21.70;83.60;;;;;;5070585;28;20107;-87
2021/09/12 06:43:39;;;;;;;1.90;1.00;;;21.70;83.70;;;;;;5070603;28;20536;-81
2021/09/12 06:46:05;;;;;;;1.10;0.63;;;21.70;83.60;;;;;;5070748;28;20020;-85
2021/09/12 06:48:30;;;;;;;3.08;1.08;;;21.70;83.60;;;;;;5070111;28;20511;-87
2021/09/12 06:50:57;;;;;;;4.43;0.90;;;21.60;83.60;;;;;;5070829;28;20115;-79
2021/09/12 06:53:24;;;;;;;1.75;0.82;;;21.60;83.50;;;;;;5069680;28;20033;-88
2021/09/12 06:55:49;;;;;;;2.28;0.80;;;21.60;83.50;;;;;;5070780;28;20032;-87
2021/09/12 06:58:16;;;;;;;1.73;0.68;;;21.70;83.60;;;;;;5073918;28;20388;-84
2021/09/12 07:00:42;;;;;;;3.15;1.10;;;21.60;83.50;;;;;;5073793;28;20029;-87
2021/09/12 07:03:07;;;;;;;1.58;0.75;;;21.60;83.60;;;;;;5073982;28;20035;-80
2021/09/12 07:05:33;;;;;;;2.47;1.15;;;21.60;83.50;;;;;;5073915;28;20033;-88
2021/09/12 07:07:59;;;;;;;1.83;0.82;;;21.70;83.60;;;;;;5072182;28;20109;-85
2021/09/12 07:10:24;;;;;;;1.95;0.90;;;21.60;83.60;;;;;;5073539;28;20028;-80
2021/09/12 07:12:51;;;;;;;2.17;0.95;;;21.60;83.60;;;;;;5072391;28;20024;-87
2021/09/12 07:15:17;;;;;;;2.15;0.90;;;21.60;83.50;;;;;;5074149;28;20060;-84
2021/09/12 07:17:43;;;;;;;1.52;0.95;;;21.60;83.60;;;;;;5072026;28;20377;-85
2021/09/12 07:20:10;;;;;;;2.55;1.45;;;21.60;83.60;;;;;;5073845;28;20031;-86
2021/09/12 07:22:35;;;;;;;2.05;0.90;;;21.60;83.60;;;;;;5072883;28;20024;-81
2021/09/12 07:25:02;;;;;;;3.22;1.13;;;21.60;83.60;;;;;;5073832;28;20434;-78
2021/09/12 07:27:28;;;;;;;2.60;1.02;;;21.60;83.70;;;;;;5071197;28;20047;-76
2021/09/12 07:29:53;;;;;;;2.65;0.90;;;21.60;83.60;;;;;;5073208;28;20485;-85
2021/09/12 07:32:19;;;;;;;1.42;0.75;;;21.60;83.60;;;;;;5067189;28;20094;-81
2021/09/12 07:34:45;;;;;;;1.73;0.80;;;21.60;83.70;;;;;;5058824;28;20510;-86
2021/09/12 07:37:10;;;;;;;2.72;0.80;;;21.60;83.80;;;;;;5056613;28;20032;-83
2021/09/12 07:39:36;;;;;;;1.73;0.80;;;21.60;83.80;;;;;;5057263;28;20021;-83
2021/09/12 07:42:02;;;;;;;4.35;0.93;;;21.60;83.90;;;;;;5053345;28;20025;-85
2021/09/12 07:44:28;;;;;;;1.63;0.98;;;21.60;84.10;;;;;;5069099;28;20418;-81
2021/09/12 07:46:53;;;;;;;2.28;0.90;;;21.60;84.20;;;;;;5073386;28;20041;-84
2021/09/12 07:49:19;;;;;;;2.28;1.25;;;21.60;84.30;;;;;;5073527;28;20381;-83
2021/09/12 07:51:45;;;;;;;2.53;0.77;;;21.60;84.40;;;;;;5073634;28;20033;-81
2021/09/12 07:54:11;;;;;;;1.67;0.90;;;21.60;84.60;;;;;;5067689;28;20074;-83
2021/09/12 07:56:36;;;;;;;3.05;1.10;;;21.60;85.00;;;;;;5070669;28;20123;-80
2021/09/12 07:59:02;;;;;;;3.13;1.00;;;21.60;85.50;;;;;;5073023;28;20472;-83
2021/09/12 08:01:28;;;;;;;2.92;1.00;;;21.70;85.50;;;;;;5062221;28;20528;-80
2021/09/12 08:03:53;;;;;;;2.45;1.20;;;21.70;85.60;;;;;;5066139;28;20411;-84
2021/09/12 08:06:19;;;;;;;7.53;1.15;;;21.70;85.90;;;;;;5057907;28;20138;-85
2021/09/12 08:08:45;;;;;;;46.97;42.55;;;21.70;86.30;;;;;;5063096;28;20040;-84
2021/09/12 08:11:10;;;;;;;16.50;14.27;;;21.70;86.50;;;;;;5074343;28;20036;-81
2021/09/12 08:13:36;;;;;;;25.73;12.55;;;21.70;86.80;;;;;;5069962;28;20021;-85
2021/09/12 08:16:02;;;;;;;13.02;11.10;;;21.80;87.00;;;;;;5070693;28;20037;-84
2021/09/12 08:18:27;;;;;;;12.88;8.95;;;21.80;87.30;;;;;;5068510;28;20064;-85
2021/09/12 08:20:53;;;;;;;14.65;9.77;;;21.80;87.30;;;;;;5071981;28;20480;-80
2021/09/12 08:23:19;;;;;;;10.45;7.40;;;21.80;87.60;;;;;;5061072;28;20503;-79
2021/09/12 08:25:46;;;;;;;9.57;7.25;;;21.90;87.90;;;;;;5069198;28;20208;-78
2021/09/12 08:28:12;;;;;;;13.52;8.40;;;21.90;87.40;;;;;;5058746;28;20500;-81
2021/09/12 08:30:37;;;;;;;11.93;7.20;;;21.90;87.40;;;;;;5069578;28;20035;-78
2021/09/12 08:33:10;;;;;;;9.93;6.63;;;21.90;87.50;;;;;;5071586;28;20052;-81
2021/09/12 08:35:36;;;;;;;9.05;6.10;;;21.90;87.70;;;;;;5069890;28;20036;-77
2021/09/12 08:38:01;;;;;;;8.82;5.22;;;22.00;87.60;;;;;;5079241;28;20031;-76
2021/09/12 08:40:27;;;;;;;10.60;5.68;;;22.00;87.70;;;;;;5063824;28;20036;-76
2021/09/12 08:42:53;;;;;;;9.75;5.05;;;22.00;87.70;;;;;;5070836;28;20025;-76
2021/09/12 08:45:22;;;;;;;18.42;5.25;;;22.00;87.10;;;;;;5071708;28;20047;-75
2021/09/12 08:47:48;;;;;;;11.50;4.60;;;22.00;87.70;;;;;;5072380;28;20514;-84
2021/09/12 08:50:14;;;;;;;10.18;4.20;;;22.00;87.50;;;;;;5071633;28;20099;-79
2021/09/12 08:52:39;;;;;;;8.70;3.80;;;22.10;87.50;;;;;;5072071;28;20468;-75
2021/09/12 08:55:06;;;;;;;10.00;3.95;;;22.10;87.50;;;;;;5071668;28;20024;-81
2021/09/12 08:57:32;;;;;;;8.93;3.20;;;22.10;87.40;;;;;;5071247;28;20020;-77
2021/09/12 08:59:58;;;;;;;10.45;3.22;;;22.10;87.20;;;;;;5072054;28;20111;-76
2021/09/12 09:02:25;;;;;;;6.88;3.47;;;22.10;87.20;;;;;;5070419;28;20020;-76
2021/09/12 09:05:01;;;;;;;10.07;2.70;;;22.10;87.20;;;;;;5071764;28;20017;-78
2021/09/12 09:07:30;;;;;;;9.10;3.22;;;22.10;87.10;;;;;;5071385;28;20551;-76
2021/09/12 09:09:57;;;;;;;6.88;2.80;;;22.10;86.80;;;;;;5070979;28;20041;-78
2021/09/12 09:12:30;;;;;;;7.93;2.60;;;22.20;86.90;;;;;;5070806;28;20027;-78
2021/09/12 09:15:19;;;;;;;6.88;2.90;;;22.20;87.50;;;;;;5071213;28;20045;-76
2021/09/12 09:17:50;;;;;;;5.22;2.28;;;22.20;86.50;;;;;;5068734;28;20056;-79
2021/09/12 09:20:19;;;;;;;6.75;2.30;;;22.20;86.00;;;;;;5067897;28;20476;-75
2021/09/12 09:22:47;;;;;;;6.63;2.70;;;22.20;86.00;;;;;;5069407;28;20412;-80
2021/09/12 09:25:21;;;;;;;14.50;3.17;;;22.20;86.10;;;;;;5069694;28;20062;-83
2021/09/12 09:28:02;;;;;;;4.70;2.13;;;22.30;85.90;;;;;;5070520;28;20399;-75
2021/09/12 09:30:29;;;;;;;8.40;4.10;;;22.30;86.10;;;;;;5069596;28;20107;-80
2021/09/12 09:33:12;;;;;;;7.13;2.50;;;22.30;86.30;;;;;;5069891;28;20099;-76
2021/09/12 09:35:38;;;;;;;7.18;3.00;;;22.30;86.10;;;;;;5068593;28;20037;-80
2021/09/12 09:38:04;;;;;;;8.82;2.80;;;22.30;86.10;;;;;;5069948;28;20020;-81
2021/09/12 09:40:30;;;;;;;6.25;2.75;;;22.30;86.00;;;;;;5067522;28;20025;-80
2021/09/12 09:42:57;;;;;;;6.03;2.67;;;;;;;;;;5069865;28;20066;-78
2021/09/12 09:45:24;;;;;;;9.25;2.70;;;22.20;85.70;;;;;;5069667;28;20061;-83
2021/09/12 09:47:52;;;;;;;8.40;3.50;;;22.20;86.30;;;;;;5069620;28;20048;-81
2021/09/12 09:50:29;;;;;;;17.27;4.53;;;22.20;87.30;;;;;;5069046;28;20027;-80
2021/09/12 09:52:56;;;;;;;17.58;3.92;;;22.20;86.30;;;;;;5067573;28;20029;-79
2021/09/12 09:55:26;;;;;;;11.60;2.97;;;22.20;86.50;;;;;;5070739;28;20399;-80
2021/09/12 09:57:54;;;;;;;12.68;3.30;;;22.30;86.30;;;;;;5066143;28;20502;-78
2021/09/12 10:00:22;;;;;;;10.75;3.45;;;22.30;87.60;;;;;;5068629;28;20020;-82
2021/09/12 10:02:48;;;;;;;12.60;3.42;;;22.30;86.50;;;;;;5070207;28;20025;-80
2021/09/12 10:05:17;;;;;;;8.20;3.53;;;22.20;87.40;;;;;;5069169;28;20466;-80
2021/09/12 10:07:43;;;;;;;8.35;3.78;;;22.10;87.30;;;;;;5069578;28;20028;-78
2021/09/12 10:10:11;;;;;;;8.95;3.63;;;22.10;86.90;;;;;;5065310;28;20064;-79
2021/09/12 10:12:49;;;;;;;12.70;4.40;;;22.10;86.90;;;;;;5066796;28;20016;-80
2021/09/12 10:15:24;;;;;;;12.48;4.70;;;22.20;86.30;;;;;;5066373;28;20036;-79
2021/09/12 10:17:51;;;;;;;12.85;4.47;;;22.10;85.80;;;;;;5072183;28;20051;-77
2021/09/12 10:20:26;;;;;;;10.50;4.22;;;22.20;86.20;;;;;;5070092;28;20404;-80
2021/09/12 10:22:53;;;;;;;11.43;4.45;;;22.20;86.70;;;;;;5069405;28;20031;-80
2021/09/12 10:25:23;;;;;;;9.43;3.50;;;22.30;86.60;;;;;;5072469;28;20395;-78
2021/09/12 10:27:59;;;;;;;10.45;4.20;;;22.30;86.30;;;;;;5069766;28;20028;-82
2021/09/12 10:30:28;;;;;;;9.05;3.40;;;22.30;86.20;;;;;;5070487;28;20693;-78
2021/09/12 10:33:25;;;;;;;10.35;3.10;;;22.30;86.50;;;;;;5074731;28;20107;-78
2021/09/12 10:35:53;;;;;;;6.65;3.47;;;22.30;86.20;;;;;;5071474;28;20048;-81
2021/09/12 10:38:31;;;;;;;8.43;3.20;;;22.40;87.00;;;;;;5074413;28;20456;-85
2021/09/12 10:40:56;;;;;;;7.30;2.78;;;22.40;87.10;;;;;;5073750;28;20078;-83
2021/09/12 10:43:25;;;;;;;8.70;3.05;;;22.50;87.60;;;;;;5074052;28;20029;-80
2021/09/12 10:46:08;;;;;;;7.63;2.47;;;22.50;87.20;;;;;;5074173;28;20048;-77
2021/09/12 10:48:44;;;;;;;10.73;2.97;;;22.60;87.40;;;;;;5072841;28;20097;-85
2021/09/12 10:51:09;;;;;;;;;;;22.60;87.10;;;;;;5070679;28;20033;-80
2021/09/12 10:53:44;;;;;;;;;;;22.70;86.90;;;;;;5072864;28;19916;-79
2021/09/12 10:56:15;;;;;;;8.05;2.95;;;22.70;87.50;;;;;;5071502;28;19939;-80
2021/09/12 10:58:42;;;;;;;7.85;3.08;;;22.80;87.80;;;;;;5073506;28;20400;-79
2021/09/12 11:01:11;;;;;;;8.43;2.78;;;22.80;87.80;;;;;;5072518;28;20025;-80
2021/09/12 11:03:37;;;;;;;8.50;2.55;;;22.80;87.50;;;;;;5072278;28;20024;-75
2021/09/12 11:06:03;;;;;;;6.95;2.80;;;22.90;87.30;;;;;;5072142;28;20032;-80
2021/09/12 11:08:37;;;;;;;9.50;3.40;;;22.90;87.60;;;;;;5072054;28;20047;-89
2021/09/12 11:11:06;;;;;;;8.95;3.10;;;22.90;87.20;;;;;;5071948;28;20096;-76
2021/09/12 11:13:34;;;;;;;9.80;3.28;;;22.90;86.90;;;;;;5068630;28;20137;-84
2021/09/12 11:16:08;;;;;;;9.90;3.55;;;23.00;86.80;;;;;;5072724;28;20506;-82
2021/09/12 11:18:41;;;;;;;7.23;3.27;;;23.00;86.80;;;;;;5070148;28;20027;-83
2021/09/12 11:21:07;;;;;;;7.97;3.10;;;23.00;86.50;;;;;;5071605;28;20028;-81
2021/09/12 11:23:33;;;;;;;9.00;3.40;;;23.00;86.20;;;;;;5069816;28;20029;-86
2021/09/12 11:25:59;;;;;;;9.90;3.53;;;23.10;86.30;;;;;;5071928;28;20145;-84
2021/09/12 11:28:27;;;;;;;8.10;2.92;;;23.10;85.60;;;;;;5071827;28;20663;-84
2021/09/12 11:30:53;;;;;;;6.15;3.08;;;23.10;85.30;;;;;;5072147;28;20214;-80
2021/09/12 11:33:19;;;;;;;8.98;3.28;;;23.20;84.80;;;;;;5072457;28;20142;-83
2021/09/12 11:36:02;;;;;;;8.88;3.17;;;23.20;84.80;;;;;;5073175;28;20500;-84
2021/09/12 11:38:29;;;;;;;11.90;3.80;;;23.20;84.60;;;;;;5072780;28;20032;-81
2021/09/12 11:40:58;;;;;;;7.35;3.85;;;23.20;84.50;;;;;;5071929;28;20020;-83
2021/09/12 11:43:25;;;;;;;8.13;2.85;;;23.20;84.40;;;;;;5071497;28;20202;-82
2021/09/12 11:46:04;;;;;;;6.97;3.80;;;23.20;84.20;;;;;;5073143;28;20032;-79
2021/09/12 11:48:30;;;;;;;9.18;3.33;;;23.30;83.40;;;;;;5072951;28;20035;-80
2021/09/12 11:50:56;;;;;;;11.52;3.35;;;23.30;84.10;;;;;;5072746;28;20028;-77
2021/09/12 11:53:27;;;;;;;9.73;3.28;;;23.30;83.70;;;;;;5072854;28;20077;-79
2021/09/12 11:55:53;;;;;;;15.75;2.97;;;23.30;84.00;;;;;;5073040;28;20497;-77
2021/09/12 11:58:20;;;;;;;14.77;3.22;;;23.40;84.40;;;;;;5073391;28;20020;-75
2021/09/12 12:00:47;;;;;;;14.73;3.90;;;23.50;84.60;;;;;;5074892;28;20166;-77
2021/09/12 12:03:15;;;;;;;16.30;2.78;;;23.50;84.80;;;;;;5071778;28;20096;-77
2021/09/12 12:05:42;;;;;;;18.10;2.95;;;23.50;84.50;;;;;;5070677;28;20575;-77
2021/09/12 12:08:13;;;;;;;10.18;3.30;;;23.60;84.60;;;;;;5071129;28;20125;-77
2021/09/12 12:10:39;;;;;;;10.38;3.03;;;23.70;84.70;;;;;;5068958;28;20033;-76
2021/09/12 12:13:05;;;;;;;11.10;3.05;;;23.70;84.80;;;;;;5070847;28;20025;-77
2021/09/12 12:15:40;;;;;;;8.35;2.60;;;23.80;84.60;;;;;;5070337;28;20036;-77
2021/09/12 12:18:13;;;;;;;9.10;2.60;;;23.80;84.40;;;;;;5069375;28;20025;-76
2021/09/12 12:20:40;;;;;;;8.50;3.33;;;23.80;84.30;;;;;;5069301;28;20107;-77
2021/09/12 12:23:26;;;;;;;10.50;2.67;;;23.90;84.10;;;;;;5071931;28;20074;-77
2021/09/12 12:25:53;;;;;;;7.03;3.00;;;23.90;83.90;;;;;;5072304;28;20384;-77
2021/09/12 12:28:25;;;;;;;9.80;2.95;;;23.90;83.50;;;;;;5072412;28;20060;-76
2021/09/12 12:31:10;;;;;;;10.57;2.92;;;23.90;83.20;;;;;;5072397;28;20078;-77
2021/09/12 12:33:36;;;;;;;7.05;2.40;;;24.00;83.30;;;;;;5071839;28;20113;-82
2021/09/12 12:36:09;;;;;;;7.88;2.53;;;23.90;83.20;;;;;;5071820;28;20508;-80
2021/09/12 12:38:37;;;;;;;8.05;2.80;;;24.00;83.40;;;;;;5070407;28;20392;-79
2021/09/12 12:41:07;;;;;;;9.30;3.03;;;24.10;84.10;;;;;;5072524;28;20036;-79
2021/09/12 12:43:32;;;;;;;6.57;2.80;;;24.10;83.70;;;;;;5072053;28;20066;-78
2021/09/12 12:45:58;;;;;;;8.55;2.60;;;24.10;83.50;;;;;;5072235;28;20024;-79